KEAN/EAN METAR and TAF weather

Enter ICAO airport designator
Station Type Date Time Source
KEAN METAR 2020/08/06 01:15 UTC NOAA

KEAN 060115Z AUTO 33004KT 10SM CLR 25/13 A3000 RMK AO2 T02500127


Station Type Date Time Source
KEAN Decoded METAR 2020/08/06 01:15 UTC NOAA

Station name not available
Aug 05, 2020 - 09:15 PM EDT / 2020.08.06 0115 UTC
Wind: from the NNW (330 degrees) at 5 MPH (4 KT):0
Visibility: 10 mile(s):0
Sky conditions: clear
Temperature: 77.0 F (25.0 C)
Dew Point: 54.9 F (12.7 C)
Relative Humidity: 46%
Pressure (altimeter): 30 in. Hg (1015 hPa)
ob: KEAN 060115Z AUTO 33004KT 10SM CLR 25/13 A3000 RMK AO2 T02500127
cycle: 1

Station Type Date Time Source
KEAN TAF UTC NOAA

Error!

Example: see airport list